createdAt,value
2018-09-10T00:00:26.950Z,101626.55
2018-09-10T00:01:31.126Z,101630.09
2018-09-10T00:02:36.153Z,101637.98
2018-09-10T00:03:40.294Z,101636.64
2018-09-10T00:04:44.499Z,101635.16
2018-09-10T00:05:48.682Z,101636.82
2018-09-10T00:06:52.922Z,101638.02
2018-09-10T00:07:57.098Z,101637.03
2018-09-10T00:09:01.397Z,101634.66
2018-09-10T00:10:05.621Z,101633.66
2018-09-10T00:11:09.997Z,101637.70
2018-09-10T00:12:14.180Z,101637.41
2018-09-10T00:13:18.403Z,101638.75
2018-09-10T00:14:22.552Z,101636.42
2018-09-10T00:15:26.914Z,101636.77
2018-09-10T00:16:31.038Z,101637.09
2018-09-10T00:17:35.224Z,101634.75
2018-09-10T00:18:39.398Z,101632.73
2018-09-10T00:19:43.539Z,101638.61
2018-09-10T00:20:47.679Z,101633.92
2018-09-10T00:21:51.851Z,101632.08
2018-09-10T00:22:56.057Z,101630.73
2018-09-10T00:24:00.336Z,101626.70
2018-09-10T00:25:04.615Z,101621.31
2018-09-10T00:26:08.750Z,101624.50
2018-09-10T00:27:12.881Z,101621.11
2018-09-10T00:28:20.693Z,101621.28
2018-09-10T00:29:26.151Z,101621.11
2018-09-10T00:30:33.677Z,101615.88
2018-09-10T00:31:37.824Z,101617.51
2018-09-10T00:32:42.082Z,101614.14
2018-09-10T00:33:46.557Z,101611.77
2018-09-10T00:34:50.723Z,101614.11
2018-09-10T00:35:54.943Z,101614.78
2018-09-10T00:36:59.350Z,101623.50
2018-09-10T00:38:03.511Z,101612.91
2018-09-10T00:39:10.867Z,101617.95
2018-09-10T00:40:15.383Z,101614.41
2018-09-10T00:41:19.540Z,101615.93
2018-09-10T00:42:23.690Z,101615.58
2018-09-10T00:43:27.826Z,101617.91
2018-09-10T00:44:32.190Z,101614.05
2018-09-10T00:45:36.345Z,101616.75
2018-09-10T00:46:40.518Z,101619.93
2018-09-10T00:47:44.980Z,101616.89
2018-09-10T00:48:49.097Z,101619.58
2018-09-10T00:49:53.287Z,101619.23
2018-09-10T00:50:57.816Z,101620.75
2018-09-10T00:52:01.977Z,101621.25
2018-09-10T00:53:06.119Z,101622.73
2018-09-10T00:54:12.634Z,101627.13
2018-09-10T00:55:16.848Z,101625.95
2018-09-10T00:56:21.041Z,101625.95
2018-09-10T00:57:25.222Z,101627.63
2018-09-10T00:58:29.740Z,101624.08
2018-09-10T00:59:33.904Z,101625.78
2018-09-10T01:00:38.173Z,101626.48
2018-09-10T01:01:42.686Z,101624.61
2018-09-10T01:02:46.835Z,101628.86
2018-09-10T01:03:51.034Z,101631.02
2018-09-10T01:04:55.213Z,101633.92
2018-09-10T01:05:59.506Z,101634.59
2018-09-10T01:07:03.673Z,101630.55
2018-09-10T01:08:07.905Z,101632.92
2018-09-10T01:09:12.073Z,101630.09
2018-09-10T01:10:16.370Z,101630.09
2018-09-10T01:11:20.580Z,101636.33
2018-09-10T01:12:24.841Z,101637.00
2018-09-10T01:13:28.973Z,101637.00
2018-09-10T01:14:33.286Z,101637.00
2018-09-10T01:15:37.474Z,101646.42
2018-09-10T01:16:41.671Z,101642.52
2018-09-10T01:17:45.840Z,101642.52
2018-09-10T01:18:50.158Z,101643.87
2018-09-10T01:19:54.751Z,101640.01
2018-09-10T01:20:59.094Z,101644.40
2018-09-10T01:22:03.311Z,101642.70
2018-09-10T01:23:07.434Z,101645.04
2018-09-10T01:24:11.631Z,101636.61
2018-09-10T01:25:15.850Z,101641.67
2018-09-10T01:26:20.035Z,101650.74
2018-09-10T01:27:24.288Z,101647.37
2018-09-10T01:28:28.438Z,101650.39
2018-09-10T01:29:32.648Z,101654.74
2018-09-10T01:30:36.830Z,101658.92
2018-09-10T01:31:41.329Z,101667.67
2018-09-10T01:32:47.695Z,101662.92
2018-09-10T01:33:57.134Z,101666.11
2018-09-10T01:35:06.561Z,101665.44
2018-09-10T01:36:10.727Z,101670.47
2018-09-10T01:37:14.988Z,101671.14
2018-09-10T01:38:19.149Z,101678.18
2018-09-10T01:39:23.334Z,101683.38
2018-09-10T01:40:27.500Z,101675.45
2018-09-10T01:41:31.689Z,101679.45
2018-09-10T01:42:35.876Z,101679.97
2018-09-10T01:43:40.107Z,101676.44
2018-09-10T01:44:44.253Z,101682.31
2018-09-10T01:45:51.096Z,101677.92
2018-09-10T01:46:55.236Z,101675.41
2018-09-10T01:47:59.397Z,101673.70
2018-09-10T01:49:03.629Z,101672.85
2018-09-10T01:50:07.852Z,101670.66
2018-09-10T01:51:12.043Z,101659.72
2018-09-10T01:52:16.232Z,101666.44
2018-09-10T01:53:20.506Z,101664.42
2018-09-10T01:54:24.813Z,101659.18
2018-09-10T01:55:28.982Z,101656.66
2018-09-10T01:56:33.224Z,101659.14
2018-09-10T01:57:37.350Z,101660.98
2018-09-10T01:58:41.700Z,101662.50
2018-09-10T01:59:45.886Z,101660.16
2018-09-10T02:00:50.555Z,101657.25
2018-09-10T02:01:54.703Z,101659.12
2018-09-10T02:02:58.868Z,101658.77
2018-09-10T02:04:03.052Z,101653.39
2018-09-10T02:05:07.580Z,101651.02
2018-09-10T02:06:11.880Z,101658.06
2018-09-10T02:07:16.042Z,101652.00
2018-09-10T02:08:20.191Z,101648.96
2018-09-10T02:09:24.812Z,101647.30
2018-09-10T02:10:29.032Z,101655.36
2018-09-10T02:11:33.202Z,101652.81
2018-09-10T02:12:37.443Z,101657.34
2018-09-10T02:13:41.806Z,101657.02
2018-09-10T02:14:45.967Z,101663.74
2018-09-10T02:15:51.963Z,101663.03
2018-09-10T02:16:56.154Z,101664.37
2018-09-10T02:18:00.400Z,101664.05
2018-09-10T02:19:04.602Z,101667.37
2018-09-10T02:20:08.803Z,101664.86
2018-09-10T02:21:13.042Z,101667.02
2018-09-10T02:22:17.259Z,101663.16
2018-09-10T02:23:22.346Z,101663.30
2018-09-10T02:24:26.681Z,101662.80
2018-09-10T02:25:30.960Z,101661.95
2018-09-10T02:26:35.218Z,101656.93
2018-09-10T02:27:39.509Z,101656.08
2018-09-10T02:28:43.679Z,101651.72
2018-09-10T02:29:47.839Z,101652.90
2018-09-10T02:30:51.997Z,101651.55
2018-09-10T02:31:56.206Z,101643.48
2018-09-10T02:33:00.499Z,101641.64
2018-09-10T02:34:04.704Z,101641.16
2018-09-10T02:35:09.001Z,101642.81
2018-09-10T02:36:13.164Z,101647.37
2018-09-10T02:37:17.626Z,101646.85
2018-09-10T02:38:21.807Z,101648.20
2018-09-10T02:39:26.004Z,101639.31
2018-09-10T02:40:30.447Z,101639.45
2018-09-10T02:41:39.831Z,101640.66
2018-09-10T02:42:44.036Z,101640.13
2018-09-10T02:43:48.310Z,101641.47
2018-09-10T02:44:52.491Z,101642.81
2018-09-10T02:45:56.742Z,101637.30
2018-09-10T02:47:00.901Z,101636.81
2018-09-10T02:48:05.311Z,101644.02
2018-09-10T02:49:09.494Z,101642.32
2018-09-10T02:50:13.698Z,101642.81
2018-09-10T02:51:17.874Z,101636.63
2018-09-10T02:52:22.253Z,101639.80
2018-09-10T02:53:26.919Z,101642.50
2018-09-10T02:54:31.176Z,101641.64
2018-09-10T02:55:35.333Z,101645.81
2018-09-10T02:56:39.483Z,101647.52
2018-09-10T02:57:43.808Z,101647.52
2018-09-10T02:58:48.019Z,101644.83
2018-09-10T02:59:52.180Z,101645.81
2018-09-10T03:00:56.385Z,101652.05
2018-09-10T03:02:00.534Z,101659.62
2018-09-10T03:03:04.743Z,101656.27
2018-09-10T03:04:08.943Z,101658.62
2018-09-10T03:05:13.131Z,101664.33
2018-09-10T03:06:17.555Z,101664.50
2018-09-10T03:07:21.746Z,101671.72
2018-09-10T03:08:25.874Z,101676.43
2018-09-10T03:09:30.232Z,101680.14
2018-09-10T03:10:34.724Z,101681.48
2018-09-10T03:11:38.866Z,101677.28
2018-09-10T03:12:43.030Z,101671.59
2018-09-10T03:13:47.549Z,101671.95
2018-09-10T03:14:51.770Z,101671.81
2018-09-10T03:15:55.975Z,101677.51
2018-09-10T03:17:00.115Z,101676.03
2018-09-10T03:18:04.413Z,101673.16
2018-09-10T03:19:08.571Z,101680.60
2018-09-10T03:20:12.801Z,101677.24
2018-09-10T03:21:17.087Z,101678.09
2018-09-10T03:22:21.241Z,101672.22
2018-09-10T03:23:25.397Z,101683.34
2018-09-10T03:24:29.783Z,101679.30
2018-09-10T03:25:33.971Z,101674.91
2018-09-10T03:26:38.138Z,101673.56
2018-09-10T03:27:42.266Z,101673.56
2018-09-10T03:28:46.420Z,101671.86
2018-09-10T03:29:50.582Z,101673.70
2018-09-10T03:30:54.813Z,101681.28
2018-09-10T03:31:58.959Z,101686.16
2018-09-10T03:33:03.181Z,101682.98
2018-09-10T03:34:07.358Z,101683.97
2018-09-10T03:35:11.546Z,101686.16
2018-09-10T03:36:15.713Z,101688.99
2018-09-10T03:37:20.030Z,101691.85
2018-09-10T03:38:25.227Z,101689.30
2018-09-10T03:39:29.818Z,101695.20
2018-09-10T03:40:34.104Z,101700.06
2018-09-10T03:41:38.294Z,101695.84
2018-09-10T03:42:42.537Z,101692.16
2018-09-10T03:43:46.693Z,101690.11
2018-09-10T03:44:50.948Z,101687.94
2018-09-10T03:45:55.125Z,101681.72
2018-09-10T03:46:59.360Z,101696.33
2018-09-10T03:48:03.526Z,101695.16
2018-09-10T03:49:07.769Z,101699.69
2018-09-10T03:50:11.952Z,101705.06
2018-09-10T03:51:16.162Z,101706.55
2018-09-10T03:52:20.475Z,101713.27
2018-09-10T03:53:24.648Z,101713.80
2018-09-10T03:54:28.796Z,101712.09
2018-09-10T03:55:33.007Z,101711.44
2018-09-10T03:56:37.202Z,101710.45
2018-09-10T03:57:41.363Z,101715.16
2018-09-10T03:58:45.751Z,101714.66
2018-09-10T03:59:50.022Z,101721.88
2018-09-10T04:00:54.155Z,101722.73
2018-09-10T04:01:58.637Z,101716.86
2018-09-10T04:03:02.789Z,101713.18
2018-09-10T04:04:07.149Z,101722.28
2018-09-10T04:05:11.355Z,101718.25
2018-09-10T04:06:15.723Z,101716.24
2018-09-10T04:07:19.866Z,101715.25
2018-09-10T04:08:23.997Z,101717.63
2018-09-10T04:09:28.175Z,101719.83
2018-09-10T04:10:32.349Z,101713.59
2018-09-10T04:11:36.560Z,101715.30
2018-09-10T04:12:40.895Z,101722.34
2018-09-10T04:13:45.065Z,101716.97
2018-09-10T04:14:49.256Z,101725.53
2018-09-10T04:15:53.610Z,101723.37
2018-09-10T04:16:57.738Z,101721.50
2018-09-10T04:18:01.894Z,101724.72
2018-09-10T04:19:06.214Z,101729.56
2018-09-10T04:20:11.250Z,101727.73
2018-09-10T04:21:15.450Z,101730.09
2018-09-10T04:22:19.661Z,101733.11
2018-09-10T04:23:23.810Z,101723.37
2018-09-10T04:24:28.015Z,101719.66
2018-09-10T04:25:32.302Z,101721.36
2018-09-10T04:26:36.495Z,101714.28
2018-09-10T04:27:40.633Z,101717.33
2018-09-10T04:28:44.891Z,101717.68
2018-09-10T04:29:49.088Z,101708.76
2018-09-10T04:30:53.264Z,101715.98
2018-09-10T04:31:57.426Z,101717.46
2018-09-10T04:33:01.918Z,101717.14
2018-09-10T04:34:06.088Z,101718.30
2018-09-10T04:35:10.714Z,101717.45
2018-09-10T04:36:14.995Z,101724.31
2018-09-10T04:37:19.867Z,101715.20
2018-09-10T04:38:24.070Z,101719.23
2018-09-10T04:39:29.427Z,101713.18
2018-09-10T04:40:33.624Z,101712.33
2018-09-10T04:41:42.557Z,101711.48
2018-09-10T04:42:46.832Z,101712.83
2018-09-10T04:43:50.979Z,101716.86
2018-09-10T04:44:55.168Z,101716.50
2018-09-10T04:46:00.160Z,101722.38
2018-09-10T04:47:04.297Z,101721.56
2018-09-10T04:48:10.210Z,101726.09
2018-09-10T04:49:14.724Z,101730.12
2018-09-10T04:50:19.234Z,101720.35
2018-09-10T04:51:23.501Z,101725.73
2018-09-10T04:52:27.656Z,101722.19
2018-09-10T04:53:33.512Z,101725.73
2018-09-10T04:54:37.693Z,101723.21
2018-09-10T04:55:41.863Z,101723.84
2018-09-10T04:56:46.029Z,101725.19
2018-09-10T04:57:50.253Z,101725.19
2018-09-10T04:58:54.446Z,101728.05
2018-09-10T04:59:58.594Z,101729.88
2018-09-10T05:01:03.000Z,101732.22
2018-09-10T05:02:07.401Z,101737.77
2018-09-10T05:03:11.595Z,101734.19
2018-09-10T05:04:15.762Z,101735.53
2018-09-10T05:05:20.117Z,101731.14
2018-09-10T05:06:24.344Z,101734.33
2018-09-10T05:07:28.519Z,101734.33
2018-09-10T05:08:32.738Z,101734.82
2018-09-10T05:09:36.969Z,101740.69
2018-09-10T05:10:41.283Z,101735.48
2018-09-10T05:11:45.422Z,101734.14
2018-09-10T05:12:49.669Z,101740.50
2018-09-10T05:13:53.805Z,101736.97
2018-09-10T05:14:57.991Z,101747.58
2018-09-10T05:16:02.151Z,101747.89
2018-09-10T05:17:06.282Z,101745.69
2018-09-10T05:18:10.456Z,101754.61
2018-09-10T05:19:14.638Z,101747.39
2018-09-10T05:20:18.794Z,101750.94
2018-09-10T05:21:23.004Z,101750.94
2018-09-10T05:22:27.127Z,101752.28
2018-09-10T05:23:31.547Z,101752.77
2018-09-10T05:24:35.984Z,101752.77
2018-09-10T05:25:40.252Z,101754.97
2018-09-10T05:26:44.466Z,101751.26
2018-09-10T05:27:48.666Z,101755.16
2018-09-10T05:28:52.891Z,101752.47
2018-09-10T05:29:57.053Z,101748.76
2018-09-10T05:31:01.229Z,101754.98
2018-09-10T05:32:05.456Z,101754.84
2018-09-10T05:33:09.611Z,101754.00
2018-09-10T05:34:13.991Z,101757.05
2018-09-10T05:35:18.146Z,101771.48
2018-09-10T05:36:22.410Z,101766.09
2018-09-10T05:37:26.772Z,101762.56
2018-09-10T05:38:31.082Z,101771.61
2018-09-10T05:39:35.309Z,101763.72
2018-09-10T05:40:39.540Z,101769.94
2018-09-10T05:41:43.805Z,101764.70
2018-09-10T05:42:47.938Z,101776.17
2018-09-10T05:43:52.163Z,101778.86
2018-09-10T05:44:56.348Z,101773.80
2018-09-10T05:46:00.499Z,101766.23
2018-09-10T05:47:04.677Z,101769.64
2018-09-10T05:48:09.038Z,101763.77
2018-09-10T05:49:13.311Z,101756.06
2018-09-10T05:50:17.527Z,101767.17
2018-09-10T05:51:21.896Z,101767.53
2018-09-10T05:52:26.034Z,101767.17
2018-09-10T05:53:30.182Z,101769.86
2018-09-10T05:54:34.340Z,101776.58
2018-09-10T05:55:38.740Z,101776.58
2018-09-10T05:56:42.856Z,101776.22
2018-09-10T05:57:47.187Z,101778.91
2018-09-10T05:58:51.321Z,101778.42
2018-09-10T05:59:55.652Z,101790.88
2018-09-10T06:00:59.993Z,101790.38
2018-09-10T06:02:04.190Z,101803.34
2018-09-10T06:03:08.352Z,101809.53
2018-09-10T06:04:12.539Z,101806.34
2018-09-10T06:05:16.740Z,101809.89
2018-09-10T06:06:20.934Z,101814.64
2018-09-10T06:07:25.358Z,101817.66
2018-09-10T06:08:29.899Z,101822.90
2018-09-10T06:09:34.031Z,101824.92
2018-09-10T06:10:38.318Z,101827.97
2018-09-10T06:11:42.717Z,101826.46
2018-09-10T06:12:47.638Z,101830.00
2018-09-10T06:13:51.764Z,101831.21
2018-09-10T06:14:56.340Z,101831.04
2018-09-10T06:16:00.569Z,101833.23
2018-09-10T06:17:04.975Z,101835.44
2018-09-10T06:18:09.126Z,101830.91
2018-09-10T06:19:16.503Z,101829.56
2018-09-10T06:20:20.852Z,101829.07
2018-09-10T06:21:25.019Z,101824.54
2018-09-10T06:22:29.365Z,101814.47
2018-09-10T06:23:33.608Z,101804.88
2018-09-10T06:24:37.762Z,101806.45
2018-09-10T06:25:41.990Z,101802.73
2018-09-10T06:26:46.230Z,101801.75
2018-09-10T06:27:50.630Z,101807.13
2018-09-10T06:28:55.183Z,101804.08
2018-09-10T06:29:59.454Z,101803.45
2018-09-10T06:31:03.625Z,101803.59
2018-09-10T06:32:07.826Z,101803.59
2018-09-10T06:33:12.040Z,101796.02
2018-09-10T06:34:16.596Z,101793.67
2018-09-10T06:35:20.633Z,101790.49
2018-09-10T06:36:25.438Z,101786.64
2018-09-10T06:37:30.080Z,101784.99
2018-09-10T06:38:34.500Z,101787.55
2018-09-10T06:39:38.808Z,101782.84
2018-09-10T06:40:42.963Z,101791.77
2018-09-10T06:41:47.130Z,101796.16
2018-09-10T06:42:51.332Z,101801.86
2018-09-10T06:43:55.564Z,101808.95
2018-09-10T06:44:59.721Z,101808.95
2018-09-10T06:46:03.930Z,101811.64
2018-09-10T06:47:08.140Z,101810.29
2018-09-10T06:48:12.331Z,101816.88
2018-09-10T06:49:16.550Z,101814.69
2018-09-10T06:50:21.879Z,101817.38
2018-09-10T06:51:26.025Z,101811.50
2018-09-10T06:52:30.226Z,101812.18
2018-09-10T06:53:34.591Z,101809.84
2018-09-10T06:54:38.819Z,101806.48
2018-09-10T06:55:42.975Z,101809.04
2018-09-10T06:56:47.146Z,101800.97
2018-09-10T06:57:51.308Z,101795.41
2018-09-10T06:58:55.729Z,101799.31
2018-09-10T06:59:59.919Z,101801.34
2018-09-10T07:01:04.118Z,101805.88
2018-09-10T07:02:08.447Z,101799.14
2018-09-10T07:03:12.663Z,101798.30
2018-09-10T07:04:16.833Z,101802.19
2018-09-10T07:05:21.164Z,101799.33
2018-09-10T07:06:25.390Z,101802.73
2018-09-10T07:07:29.592Z,101804.75
2018-09-10T07:08:33.754Z,101800.08
2018-09-10T07:09:38.005Z,101794.53
2018-09-10T07:10:42.255Z,101801.80
2018-09-10T07:11:46.460Z,101805.52
2018-09-10T07:12:50.703Z,101810.59
2018-09-10T07:13:54.834Z,101814.00
2018-09-10T07:14:59.039Z,101822.75
2018-09-10T07:16:03.247Z,101824.45
2018-09-10T07:17:07.461Z,101826.62
2018-09-10T07:18:11.867Z,101826.62
2018-09-10T07:19:16.209Z,101824.78
2018-09-10T07:20:20.634Z,101829.84
2018-09-10T07:21:24.829Z,101827.83
2018-09-10T07:22:29.063Z,101820.42
2018-09-10T07:23:33.443Z,101826.03
2018-09-10T07:24:37.622Z,101825.50
2018-09-10T07:25:41.783Z,101827.09
2018-09-10T07:26:46.088Z,101833.52
2018-09-10T07:27:50.274Z,101831.36
2018-09-10T07:28:54.498Z,101835.93
2018-09-10T07:29:58.688Z,101837.81
2018-09-10T07:31:02.975Z,101826.37
2018-09-10T07:32:07.214Z,101826.06
2018-09-10T07:33:11.577Z,101835.66
2018-09-10T07:34:15.768Z,101830.13
2018-09-10T07:35:19.974Z,101827.48
2018-09-10T07:36:24.239Z,101831.20
2018-09-10T07:37:28.446Z,101827.17
2018-09-10T07:38:32.765Z,101826.53
2018-09-10T07:39:36.946Z,101823.16
2018-09-10T07:40:41.559Z,101822.84
2018-09-10T07:41:45.778Z,101817.48
2018-09-10T07:42:50.005Z,101812.77
2018-09-10T07:43:54.472Z,101810.43
2018-09-10T07:44:58.568Z,101809.76
2018-09-10T07:46:02.743Z,101807.77
2018-09-10T07:47:06.966Z,101809.64
2018-09-10T07:48:11.315Z,101804.61
2018-09-10T07:49:15.726Z,101805.48
2018-09-10T07:50:20.660Z,101802.47
2018-09-10T07:51:24.960Z,101808.88
2018-09-10T07:52:29.159Z,101809.91
2018-09-10T07:53:33.672Z,101814.98
2018-09-10T07:54:37.954Z,101815.65
2018-09-10T07:55:42.331Z,101808.91
2018-09-10T07:56:46.530Z,101817.00
2018-09-10T07:57:50.744Z,101814.66
2018-09-10T07:58:55.200Z,101821.28
2018-09-10T07:59:59.432Z,101822.45
2018-09-10T08:01:03.611Z,101820.25
2018-09-10T08:02:07.837Z,101817.23
2018-09-10T08:03:12.043Z,101816.38
2018-09-10T08:04:16.236Z,101821.39
2018-09-10T08:05:20.467Z,101818.70
2018-09-10T08:06:24.626Z,101813.80
2018-09-10T08:07:28.786Z,101815.33
2018-09-10T08:08:32.995Z,101818.34
2018-09-10T08:09:37.335Z,101825.59
2018-09-10T08:10:41.503Z,101818.67
2018-09-10T08:11:45.677Z,101819.66
2018-09-10T08:12:49.908Z,101817.97
2018-09-10T08:13:54.093Z,101814.77
2018-09-10T08:14:58.461Z,101813.07
2018-09-10T08:16:02.678Z,101814.77
2018-09-10T08:17:06.881Z,101809.87
2018-09-10T08:18:11.230Z,101813.28
2018-09-10T08:19:15.424Z,101823.03
2018-09-10T08:20:20.013Z,101823.03
2018-09-10T08:21:24.263Z,101821.69
2018-09-10T08:22:28.488Z,101825.73
2018-09-10T08:23:32.727Z,101827.08
2018-09-10T08:24:36.971Z,101821.05
2018-09-10T08:25:41.170Z,101820.37
2018-09-10T08:26:45.571Z,101823.13
2018-09-10T08:27:49.738Z,101818.08
2018-09-10T08:28:54.103Z,101824.17
2018-09-10T08:29:58.272Z,101831.29
2018-09-10T08:31:02.703Z,101819.50
2018-09-10T08:32:07.004Z,101833.36
2018-09-10T08:33:11.195Z,101829.16
2018-09-10T08:34:15.512Z,101826.48
2018-09-10T08:35:19.731Z,101835.78
2018-09-10T08:36:23.971Z,101836.14
2018-09-10T08:37:28.205Z,101837.18
2018-09-10T08:38:32.916Z,101837.87
2018-09-10T08:39:37.239Z,101849.34
2018-09-10T08:40:41.427Z,101849.56
2018-09-10T08:41:45.656Z,101849.08
2018-09-10T08:42:49.920Z,101857.52
2018-09-10T08:43:54.047Z,101854.66
2018-09-10T08:44:58.314Z,101851.28
2018-09-10T08:46:02.593Z,101854.83
2018-09-10T08:47:06.846Z,101849.42
2018-09-10T08:48:11.092Z,101847.73
2018-09-10T08:49:15.514Z,101843.04
2018-09-10T08:50:19.687Z,101846.41
2018-09-10T08:51:23.925Z,101850.62
2018-09-10T08:52:28.333Z,101853.67
2018-09-10T08:53:32.600Z,101852.66
2018-09-10T08:54:37.055Z,101848.09
2018-09-10T08:55:41.166Z,101846.41
2018-09-10T08:56:45.193Z,101851.82
2018-09-10T08:57:49.419Z,101845.56
2018-09-10T08:58:53.563Z,101848.11
2018-09-10T08:59:57.777Z,101847.42
2018-09-10T09:01:01.962Z,101846.42
2018-09-10T09:02:06.635Z,101847.77
2018-09-10T09:03:10.915Z,101849.78
2018-09-10T13:53:23.434Z,101861.70
2018-09-10T13:54:27.856Z,101863.56
2018-09-10T13:55:31.970Z,101864.41
2018-09-10T13:56:36.482Z,101865.09
2018-09-10T13:57:40.803Z,101864.05
2018-09-10T13:58:45.006Z,101867.94
2018-09-10T13:59:49.278Z,101865.03
2018-09-10T14:00:53.350Z,101871.44
2018-09-10T14:01:57.526Z,101860.28
2018-09-10T14:03:01.693Z,101868.05
2018-09-10T14:04:05.897Z,101863.98
2018-09-10T14:05:10.100Z,101857.00
2018-09-10T14:06:14.420Z,101863.27
2018-09-10T14:07:18.678Z,101861.23
2018-09-10T14:08:22.827Z,101863.95
2018-09-10T14:09:27.014Z,101857.54
2018-09-10T14:10:31.165Z,101857.57
2018-09-10T14:11:35.752Z,101864.02
2018-09-10T14:12:39.908Z,101864.02
2018-09-10T14:13:44.163Z,101852.66
2018-09-10T14:14:48.367Z,101841.30
2018-09-10T14:15:52.984Z,101840.59
2018-09-10T14:16:57.260Z,101839.06
2018-09-10T14:18:01.600Z,101839.20
2018-09-10T14:19:05.802Z,101840.35
2018-09-10T14:20:09.970Z,101840.22
2018-09-10T14:21:14.154Z,101839.50
2018-09-10T14:22:18.419Z,101833.06
2018-09-10T14:23:22.585Z,101833.40
2018-09-10T14:24:27.051Z,101829.64
2018-09-10T14:25:31.234Z,101831.84
2018-09-10T14:26:35.456Z,101825.91
2018-09-10T14:27:39.662Z,101824.89
2018-09-10T14:28:43.853Z,101827.09
2018-09-10T14:29:48.087Z,101825.53
2018-09-10T14:30:52.360Z,101828.08
2018-09-10T14:31:56.605Z,101826.20
2018-09-10T14:33:00.793Z,101825.16
2018-09-10T14:34:05.392Z,101837.70
2018-09-10T14:35:09.546Z,101837.36
2018-09-10T14:36:13.905Z,101837.70
2018-09-10T14:37:18.050Z,101844.48
2018-09-10T14:38:22.216Z,101846.86
2018-09-10T14:39:26.389Z,101844.99
2018-09-10T14:40:30.520Z,101848.55
2018-09-10T14:41:34.756Z,101847.03
2018-09-10T14:42:38.942Z,101843.94
2018-09-10T14:43:43.096Z,101848.79
2018-09-10T14:44:47.296Z,101847.77
2018-09-10T14:45:51.565Z,101849.77
2018-09-10T14:46:55.742Z,101849.77
2018-09-10T14:47:59.928Z,101843.32
2018-09-10T14:49:04.141Z,101841.97
2018-09-10T14:50:08.285Z,101852.82
2018-09-10T14:51:12.505Z,101851.13
2018-09-10T14:52:16.718Z,101858.75
2018-09-10T14:53:20.940Z,101862.69
2018-09-10T14:54:25.442Z,101857.95
2018-09-10T14:55:29.635Z,101865.27
2018-09-10T14:56:33.801Z,101868.16
2018-09-10T14:57:37.982Z,101869.72
2018-09-10T14:58:42.216Z,101868.66
2018-09-10T14:59:46.415Z,101865.30
2018-09-10T15:00:50.624Z,101863.10
2018-09-10T15:01:54.769Z,101864.45
2018-09-10T15:02:59.238Z,101859.75
2018-09-10T15:04:03.435Z,101867.55
2018-09-10T15:05:07.649Z,101869.41
2018-09-10T15:06:11.828Z,101862.83
2018-09-10T15:07:16.062Z,101859.27
2018-09-10T15:08:20.443Z,101859.14
2018-09-10T15:09:24.615Z,101854.39
2018-09-10T15:10:28.982Z,101855.47
2018-09-10T15:11:33.347Z,101852.77
2018-09-10T15:12:37.698Z,101852.80
2018-09-10T15:13:41.905Z,101858.92
2018-09-10T15:14:46.129Z,101852.31
2018-09-10T15:15:50.416Z,101860.96
2018-09-10T15:16:54.551Z,101861.30
2018-09-10T15:17:58.764Z,101869.09
2018-09-10T15:19:03.089Z,101870.80
2018-09-10T15:20:07.335Z,101868.59
2018-09-10T15:21:11.705Z,101865.57
2018-09-10T15:22:15.955Z,101872.15
2018-09-10T15:23:20.161Z,101870.63
2018-09-10T15:24:24.385Z,101871.98
2018-09-10T15:25:28.556Z,101875.20
2018-09-10T15:26:32.776Z,101875.88
2018-09-10T15:27:37.083Z,101872.52
2018-09-10T15:28:41.208Z,101871.50
2018-09-10T15:29:45.399Z,101870.14
2018-09-10T15:30:49.613Z,101872.86
2018-09-10T15:31:53.919Z,101871.50
2018-09-10T15:32:58.063Z,101868.08
2018-09-10T15:34:02.259Z,101860.80
2018-09-10T15:35:06.622Z,101858.42
2018-09-10T15:36:10.853Z,101862.28
2018-09-10T15:37:15.135Z,101855.70
2018-09-10T15:38:19.348Z,101857.23
2018-09-10T15:39:23.475Z,101868.59
2018-09-10T15:40:27.695Z,101872.34
2018-09-10T15:41:31.963Z,101872.18
2018-09-10T15:42:36.111Z,101871.02
2018-09-10T15:43:40.264Z,101869.33
2018-09-10T15:44:44.648Z,101867.49
2018-09-10T15:45:48.980Z,101866.00
2018-09-10T15:46:53.124Z,101860.44
2018-09-10T15:47:57.391Z,101861.95
2018-09-10T15:49:01.543Z,101856.40
2018-09-10T15:50:06.049Z,101851.99
2018-09-10T15:51:10.395Z,101848.63
2018-09-10T15:52:14.789Z,101849.31
2018-09-10T15:53:18.976Z,101841.17
2018-09-10T15:54:30.211Z,101845.24
2018-09-10T15:55:34.610Z,101849.31
2018-09-10T15:56:38.806Z,101847.95
2018-09-10T15:57:42.979Z,101849.51
2018-09-10T15:58:47.169Z,101859.00
2018-09-10T15:59:51.445Z,101851.03
2018-09-10T16:00:55.676Z,101854.79
2018-09-10T16:02:00.286Z,101855.16
2018-09-10T16:03:04.472Z,101854.31
2018-09-10T16:04:08.654Z,101849.56
2018-09-10T16:05:12.969Z,101846.85
2018-09-10T16:06:17.123Z,101843.33
2018-09-10T16:07:21.431Z,101843.83
2018-09-10T16:08:25.496Z,101847.39
2018-09-10T16:09:29.675Z,101851.45
2018-09-10T16:10:33.893Z,101848.91
2018-09-10T16:11:38.362Z,101842.98
2018-09-10T16:12:42.563Z,101842.98
2018-09-10T16:13:46.767Z,101842.64
2018-09-10T16:14:51.098Z,101844.20
2018-09-10T16:15:55.276Z,101849.28
2018-09-10T16:16:59.545Z,101848.62
2018-09-10T16:18:03.642Z,101855.91
2018-09-10T16:19:07.937Z,101856.92
2018-09-10T16:20:12.129Z,101858.98
2018-09-10T16:21:16.352Z,101858.65
2018-09-10T16:22:20.535Z,101859.36
2018-09-10T16:23:24.719Z,101861.89
2018-09-10T16:24:28.881Z,101862.09
2018-09-10T16:25:33.067Z,101855.98
2018-09-10T16:26:37.227Z,101853.47
2018-09-10T16:27:41.584Z,101851.27
2018-09-10T16:28:45.993Z,101850.93
2018-09-10T16:29:50.199Z,101851.77
2018-09-10T16:30:54.351Z,101846.36
2018-09-10T16:31:58.608Z,101853.64
2018-09-10T16:33:02.910Z,101855.50
2018-09-10T16:34:07.112Z,101854.34
2018-09-10T16:35:11.327Z,101850.78
2018-09-10T16:36:15.441Z,101848.92
2018-09-10T16:37:19.635Z,101842.82
2018-09-10T16:38:23.843Z,101843.33
2018-09-10T16:39:28.352Z,101846.38
2018-09-10T16:40:32.518Z,101849.59
2018-09-10T16:41:36.667Z,101840.78
2018-09-10T16:42:41.072Z,101842.34
2018-09-10T16:43:45.241Z,101839.28
2018-09-10T16:44:49.685Z,101835.22
2018-09-10T16:45:53.849Z,101833.22
2018-09-10T16:46:58.096Z,101828.31
2018-09-10T16:48:02.230Z,101831.33
2018-09-10T16:49:06.711Z,101830.17
2018-09-10T16:50:10.848Z,101828.31
2018-09-10T16:51:15.120Z,101823.40
2018-09-10T16:52:19.287Z,101822.55
2018-09-10T16:53:23.443Z,101820.18
2018-09-10T16:54:27.667Z,101822.89
2018-09-10T16:55:32.275Z,101819.33
2018-09-10T16:56:36.867Z,101822.55
2018-09-10T16:57:41.030Z,101818.99
2018-09-10T16:58:45.273Z,101823.56
2018-09-10T16:59:49.415Z,101824.61
2018-09-10T17:00:54.710Z,101831.03
2018-09-10T17:01:58.862Z,101832.05
2018-09-10T17:03:03.059Z,101830.55